Time;durP1;ratioP1;P1;durP2;ratioP2;P2;SDS_P1;SDS_P2;PMS_P1;PMS_P2;Temp;Humidity;BMP_temperature;BMP_pressure;BME280_temperature;BME280_humidity;BME280_pressure;Samples;Min_cycle;Max_cycle;Signal;HPM_P1;HPM_P2
2023/06/26 00:00:21;;;;;;;14.23;8.23;;;;;;;;;;6196418;23;20167;-87
2023/06/26 00:03:28;;;;;;;15.18;7.97;;;;;;;;;;6194799;23;20164;-86
2023/06/26 00:06:33;;;;;;;16.42;8.15;;;;;;;;;;6194109;23;20175;-86
2023/06/26 00:09:38;;;;;;;13.77;7.85;;;;;;;;;;6196102;23;20494;-87
2023/06/26 00:12:43;;;;;;;14.30;7.60;;;;;;;;;;6195162;23;20163;-87
2023/06/26 00:15:48;;;;;;;12.52;7.68;;;;;;;;;;6196344;23;20243;-87
2023/06/26 00:18:55;;;;;;;13.65;8.25;;;;;;;;;;6193922;23;20163;-87
2023/06/26 00:22:01;;;;;;;13.88;8.02;;;;;;;;;;6194672;23;20147;-87
2023/06/26 00:25:06;;;;;;;14.27;8.32;;;;;;;;;;6196335;23;20164;-87
2023/06/26 00:28:11;;;;;;;16.50;8.50;;;;;;;;;;6195652;23;20163;-85
2023/06/26 00:31:16;;;;;;;17.95;9.18;;;;;;;;;;6196475;23;20696;-87
2023/06/26 00:34:22;;;;;;;19.48;8.68;;;;;;;;;;6195832;23;20260;-88
2023/06/26 00:37:27;;;;;;;14.05;8.02;;;;;;;;;;6196878;23;20248;-88
2023/06/26 00:40:39;;;;;;;14.65;8.60;;;;;;;;;;6194750;23;20176;-88
2023/06/26 00:43:44;;;;;;;15.98;9.27;;;;;;;;;;6194422;23;20259;-88
2023/06/26 00:46:49;;;;;;;15.55;8.52;;;;;;;;;;6195285;23;20199;-88
2023/06/26 00:49:56;;;;;;;13.65;8.20;;;;;;;;;;6194588;23;20171;-88
2023/06/26 00:53:01;;;;;;;15.82;8.52;;;;;;;;;;6196320;23;20191;-87
2023/06/26 00:56:09;;;;;;;18.15;8.07;;;;;;;;;;6195491;23;20187;-87
2023/06/26 00:59:15;;;;;;;14.48;8.27;;;;;;;;;;6196310;23;20167;-87
2023/06/26 01:02:20;;;;;;;14.18;8.32;;;;;;;;;;6195918;23;20167;-87
2023/06/26 01:05:28;;;;;;;15.65;8.50;;;;;;;;;;6195369;23;20195;-88
2023/06/26 01:08:33;;;;;;;13.77;8.10;;;;;;;;;;6195688;23;20172;-87
2023/06/26 01:11:37;;;;;;;14.55;7.78;;;;;;;;;;6196478;23;20611;-88
2023/06/26 01:14:43;;;;;;;16.77;8.23;;;;;;;;;;6196487;23;20164;-88
2023/06/26 01:17:48;;;;;;;14.45;8.35;;;;;;;;;;6195850;23;20243;-87
2023/06/26 01:21:00;;;;;;;14.73;8.07;;;;;;;;;;6194894;23;20172;-88
2023/06/26 01:24:09;;;;;;;14.65;8.27;;;;;;;;;;6194434;23;20748;-90
2023/06/26 01:27:16;;;;;;;15.05;7.63;;;;;;;;;;6194701;23;20204;-88
2023/06/26 01:30:22;;;;;;;13.93;7.57;;;;;;;;;;6195078;23;20168;-90
2023/06/26 01:33:27;;;;;;;13.77;7.78;;;;;;;;;;6195069;23;20167;-88
2023/06/26 01:36:32;;;;;;;14.40;7.88;;;;;;;;;;6194501;23;20175;-89
2023/06/26 01:39:42;;;;;;;14.35;8.10;;;;;;;;;;6192295;23;20173;-88
2023/06/26 01:42:49;;;;;;;16.20;8.80;;;;;;;;;;6193929;23;20214;-87
2023/06/26 01:45:56;;;;;;;15.07;8.10;;;;;;;;;;6195113;23;20195;-88
2023/06/26 01:49:08;;;;;;;15.25;7.82;;;;;;;;;;6193307;23;20616;-87
2023/06/26 01:52:15;;;;;;;12.38;7.45;;;;;;;;;;6195284;23;20171;-88
2023/06/26 01:55:23;;;;;;;14.75;7.90;;;;;;;;;;6193340;23;20222;-87
2023/06/26 01:58:33;;;;;;;13.27;7.45;;;;;;;;;;6191179;23;20234;-87
2023/06/26 02:01:38;;;;;;;11.30;7.30;;;;;;;;;;6194331;23;20168;-88
2023/06/26 02:04:43;;;;;;;12.23;7.88;;;;;;;;;;6194675;23;20236;-87
2023/06/26 02:07:49;;;;;;;14.25;8.55;;;;;;;;;;6195541;23;20175;-89
2023/06/26 02:10:54;;;;;;;15.10;7.63;;;;;;;;;;6194118;23;20168;-90
2023/06/26 02:14:00;;;;;;;15.10;8.02;;;;;;;;;;6194002;23;20600;-85
2023/06/26 02:17:08;;;;;;;15.77;8.38;;;;;;;;;;6195196;23;20303;-89
2023/06/26 02:20:13;;;;;;;16.10;8.25;;;;;;;;;;6195265;23;20156;-88
2023/06/26 02:23:18;;;;;;;14.07;8.13;;;;;;;;;;6194282;23;20191;-89
2023/06/26 02:26:23;;;;;;;13.43;8.05;;;;;;;;;;6194421;23;20194;-88
2023/06/26 02:29:30;;;;;;;11.95;7.82;;;;;;;;;;6194087;23;20155;-88
2023/06/26 02:32:34;;;;;;;16.40;8.48;;;;;;;;;;6195671;23;20152;-88
2023/06/26 02:35:40;;;;;;;14.98;7.82;;;;;;;;;;6195964;23;20156;-89
2023/06/26 02:38:45;;;;;;;14.88;7.43;;;;;;;;;;6196032;23;20184;-88
2023/06/26 02:41:50;;;;;;;12.65;7.70;;;;;;;;;;6195228;23;20164;-89
2023/06/26 02:44:57;;;;;;;12.77;7.68;;;;;;;;;;6195626;23;20166;-87
2023/06/26 02:48:02;;;;;;;13.38;7.65;;;;;;;;;;6194560;23;20172;-89
2023/06/26 02:51:10;;;;;;;14.38;7.97;;;;;;;;;;6196823;23;20159;-89
2023/06/26 02:54:15;;;;;;;14.77;7.95;;;;;;;;;;6195238;23;20164;-88
2023/06/26 02:57:24;;;;;;;12.30;7.63;;;;;;;;;;6194584;23;20512;-87
2023/06/26 03:00:30;;;;;;;14.20;8.25;;;;;;;;;;6196382;23;20630;-87
2023/06/26 03:03:41;;;;;;;13.75;7.93;;;;;;;;;;6194268;23;20176;-87
2023/06/26 03:06:48;;;;;;;14.75;8.18;;;;;;;;;;6195007;23;20527;-88
2023/06/26 03:09:53;;;;;;;13.77;8.52;;;;;;;;;;6194630;23;20182;-87
2023/06/26 03:12:59;;;;;;;12.82;7.80;;;;;;;;;;6195145;23;20167;-87
2023/06/26 03:16:05;;;;;;;14.20;8.23;;;;;;;;;;6193873;23;20164;-89
2023/06/26 03:19:11;;;;;;;13.10;8.45;;;;;;;;;;6194660;23;20231;-89
2023/06/26 03:22:36;;;;;;;12.10;7.70;;;;;;;;;;6194326;23;20222;-86
2023/06/26 03:25:41;;;;;;;15.13;8.25;;;;;;;;;;6195437;23;20152;-88
2023/06/26 03:29:21;;;;;;;15.10;7.82;;;;;;;;;;6194248;23;20156;-88
2023/06/26 03:32:28;;;;;;;13.05;8.32;;;;;;;;;;6194984;23;20511;-87
2023/06/26 03:35:33;;;;;;;13.30;8.27;;;;;;;;;;6196677;23;20298;-87
2023/06/26 03:38:42;;;;;;;11.77;7.70;;;;;;;;;;6197297;23;20172;-87
2023/06/26 03:41:48;;;;;;;13.45;7.28;;;;;;;;;;6197927;23;20187;-88
2023/06/26 03:44:53;;;;;;;11.80;7.38;;;;;;;;;;6197191;23;20213;-88
2023/06/26 03:48:00;;;;;;;13.07;7.88;;;;;;;;;;6198450;23;20200;-88
2023/06/26 03:51:06;;;;;;;18.33;8.20;;;;;;;;;;6198383;23;20164;-88
2023/06/26 03:54:12;;;;;;;12.65;7.97;;;;;;;;;;6199262;23;20167;-88
2023/06/26 03:57:18;;;;;;;13.00;8.07;;;;;;;;;;6197003;23;20250;-89
2023/06/26 04:00:26;;;;;;;13.13;7.65;;;;;;;;;;6196536;23;20608;-88
2023/06/26 04:03:34;;;;;;;14.50;7.80;;;;;;;;;;6196651;23;20299;-88
2023/06/26 04:06:39;;;;;;;13.65;8.68;;;;;;;;;;6197205;23;20525;-88
2023/06/26 04:09:44;;;;;;;15.50;8.48;;;;;;;;;;6196660;23;20506;-87
2023/06/26 04:12:49;;;;;;;18.55;8.02;;;;;;;;;;6197013;23;20611;-88
2023/06/26 04:15:54;;;;;;;16.17;8.45;;;;;;;;;;6197918;23;20216;-88
2023/06/26 04:19:02;;;;;;;14.55;7.70;;;;;;;;;;6197829;23;20227;-85
2023/06/26 04:22:08;;;;;;;14.85;7.78;;;;;;;;;;6197921;23;20216;-88
2023/06/26 04:25:13;;;;;;;14.77;8.10;;;;;;;;;;6197137;23;20172;-88
2023/06/26 04:28:18;;;;;;;13.18;7.93;;;;;;;;;;6195591;23;20247;-87
2023/06/26 04:31:23;;;;;;;16.25;7.40;;;;;;;;;;6196264;23;20152;-88
2023/06/26 04:34:32;;;;;;;13.73;7.72;;;;;;;;;;6196726;23;20163;-86
2023/06/26 04:37:38;;;;;;;15.40;7.68;;;;;;;;;;6197593;23;20168;-89
2023/06/26 04:40:43;;;;;;;13.93;7.63;;;;;;;;;;6195370;23;20518;-88
2023/06/26 04:43:49;;;;;;;17.77;7.68;;;;;;;;;;6195427;23;20264;-88
2023/06/26 04:46:54;;;;;;;12.25;7.63;;;;;;;;;;6196279;23;20192;-88
2023/06/26 04:50:00;;;;;;;12.15;7.65;;;;;;;;;;6196859;23;20233;-88
2023/06/26 04:53:06;;;;;;;13.43;7.75;;;;;;;;;;6197977;23;20670;-88
2023/06/26 04:56:11;;;;;;;13.35;7.63;;;;;;;;;;6197024;23;20219;-88
2023/06/26 04:59:16;;;;;;;15.90;8.55;;;;;;;;;;6197075;23;20160;-87
2023/06/26 05:02:21;;;;;;;13.77;8.52;;;;;;;;;;6196979;23;20171;-86
2023/06/26 05:05:28;;;;;;;17.05;8.70;;;;;;;;;;6196775;23;20175;-87
2023/06/26 05:08:33;;;;;;;15.30;8.95;;;;;;;;;;6197864;23;20639;-88
2023/06/26 05:11:38;;;;;;;12.70;8.45;;;;;;;;;;6198176;23;20213;-87
2023/06/26 05:14:43;;;;;;;15.40;9.20;;;;;;;;;;6196042;23;20288;-87
2023/06/26 05:17:49;;;;;;;18.20;9.05;;;;;;;;;;6197610;23;20171;-86
2023/06/26 05:21:08;;;;;;;16.33;9.55;;;;;;;;;;6197599;23;20172;-86
2023/06/26 05:24:14;;;;;;;19.85;10.25;;;;;;;;;;6197209;23;20187;-87
2023/06/26 05:27:21;;;;;;;19.13;9.85;;;;;;;;;;6197096;23;20191;-88
2023/06/26 05:30:27;;;;;;;21.67;10.00;;;;;;;;;;6199040;23;20203;-87
2023/06/26 05:33:36;;;;;;;16.13;8.77;;;;;;;;;;6198323;23;20207;-87
2023/06/26 05:36:44;;;;;;;17.90;9.90;;;;;;;;;;6197995;23;20233;-89
2023/06/26 05:39:53;;;;;;;14.43;9.70;;;;;;;;;;6197488;23;20163;-87
2023/06/26 05:42:59;;;;;;;22.63;10.48;;;;;;;;;;6195965;23;20167;-88
2023/06/26 05:46:04;;;;;;;16.98;9.82;;;;;;;;;;6198713;23;20167;-87
2023/06/26 05:49:09;;;;;;;16.52;9.68;;;;;;;;;;6199938;23;20300;-88
2023/06/26 05:52:17;;;;;;;17.50;9.60;;;;;;;;;;6203006;23;20578;-85
2023/06/26 05:55:23;;;;;;;18.15;9.52;;;;;;;;;;6199727;23;20604;-88
2023/06/26 05:58:45;;;;;;;16.35;9.45;;;;;;;;;;6197695;23;20176;-86
2023/06/26 06:01:51;;;;;;;15.40;9.65;;;;;;;;;;6200439;23;20176;-87
2023/06/26 06:04:56;;;;;;;19.73;10.65;;;;;;;;;;6197335;23;20172;-88
2023/06/26 06:08:02;;;;;;;15.52;8.88;;;;;;;;;;6198552;23;20179;-88
2023/06/26 06:11:07;;;;;;;14.40;9.15;;;;;;;;;;6195165;23;20176;-88
2023/06/26 06:14:12;;;;;;;16.58;8.98;;;;;;;;;;6195226;23;20167;-89
2023/06/26 06:17:18;;;;;;;15.30;7.95;;;;;;;;;;6197166;23;20650;-87
2023/06/26 06:20:22;;;;;;;11.95;7.57;;;;;;;;;;6197754;23;20204;-87
2023/06/26 06:23:46;;;;;;;13.02;8.05;;;;;;;;;;6199485;23;20243;-88
2023/06/26 06:26:55;;;;;;;13.57;7.47;;;;;;;;;;6198247;23;20203;-88
2023/06/26 06:30:00;;;;;;;13.20;7.85;;;;;;;;;;6194871;23;20180;-88
2023/06/26 06:33:05;;;;;;;16.42;6.80;;;;;;;;;;6199224;23;20172;-87
2023/06/26 06:36:10;;;;;;;14.93;7.65;;;;;;;;;;6195543;23;20229;-87
2023/06/26 06:39:21;;;;;;;15.63;7.85;;;;;;;;;;6192762;23;20512;-87
2023/06/26 06:42:28;;;;;;;14.30;8.70;;;;;;;;;;6195801;23;20168;-86
2023/06/26 06:45:33;;;;;;;13.02;7.72;;;;;;;;;;6195303;23;20211;-89
2023/06/26 06:48:38;;;;;;;15.90;7.55;;;;;;;;;;6195741;23;20184;-86
2023/06/26 06:51:43;;;;;;;13.75;7.20;;;;;;;;;;6196120;23;20167;-88
2023/06/26 06:54:59;;;;;;;14.38;7.38;;;;;;;;;;6197802;23;20153;-89
2023/06/26 06:58:08;;;;;;;12.02;7.45;;;;;;;;;;6196694;23;20666;-87
2023/06/26 07:01:13;;;;;;;12.50;7.25;;;;;;;;;;6198047;23;20164;-86
2023/06/26 07:04:19;;;;;;;13.02;7.88;;;;;;;;;;6197966;23;20160;-87
2023/06/26 07:07:24;;;;;;;12.05;8.00;;;;;;;;;;6198607;23;20571;-89
2023/06/26 07:10:33;;;;;;;11.30;7.80;;;;;;;;;;6197879;23;20167;-87
2023/06/26 07:13:39;;;;;;;12.52;6.95;;;;;;;;;;6197989;23;20159;-88
2023/06/26 07:16:45;;;;;;;13.93;7.05;;;;;;;;;;6197052;23;20627;-87
2023/06/26 07:19:50;;;;;;;11.70;7.60;;;;;;;;;;6196942;23;20233;-89
2023/06/26 07:22:56;;;;;;;13.57;7.35;;;;;;;;;;6194968;23;20188;-89
2023/06/26 07:26:01;;;;;;;12.57;7.50;;;;;;;;;;6194714;23;20160;-86
2023/06/26 07:29:08;;;;;;;12.13;7.20;;;;;;;;;;6196363;23;20194;-86
2023/06/26 07:32:13;;;;;;;12.02;7.60;;;;;;;;;;6196257;23;20167;-87
2023/06/26 07:35:18;;;;;;;11.93;7.32;;;;;;;;;;6196022;23;20219;-84
2023/06/26 07:38:24;;;;;;;14.32;7.38;;;;;;;;;;6198293;23;20187;-87
2023/06/26 07:41:33;;;;;;;11.88;7.43;;;;;;;;;;6197202;23;20155;-88
2023/06/26 07:44:40;;;;;;;13.10;7.60;;;;;;;;;;6196197;23;20454;-86
2023/06/26 07:47:47;;;;;;;10.70;7.13;;;;;;;;;;6195776;23;21002;-88
2023/06/26 07:50:56;;;;;;;11.80;7.18;;;;;;;;;;6195845;23;20171;-87
2023/06/26 07:54:01;;;;;;;13.13;7.00;;;;;;;;;;6194085;23;20179;-87
2023/06/26 07:57:11;;;;;;;11.10;6.55;;;;;;;;;;6195404;23;20171;-87
2023/06/26 08:00:18;;;;;;;10.38;7.38;;;;;;;;;;6197058;23;20171;-88
2023/06/26 08:03:24;;;;;;;9.48;6.35;;;;;;;;;;6198945;23;20250;-90
2023/06/26 08:06:28;;;;;;;8.50;6.68;;;;;;;;;;6199399;23;20167;-88
2023/06/26 08:09:34;;;;;;;11.45;7.00;;;;;;;;;;6196099;23;20163;-88
2023/06/26 08:12:42;;;;;;;9.32;6.07;;;;;;;;;;6199036;23;20218;-87
2023/06/26 08:15:49;;;;;;;12.48;6.47;;;;;;;;;;6197788;23;20166;-88
2023/06/26 08:18:56;;;;;;;11.98;6.68;;;;;;;;;;6195661;23;20171;-88
2023/06/26 08:22:01;;;;;;;10.63;6.88;;;;;;;;;;6197352;23;20170;-89
2023/06/26 08:25:06;;;;;;;9.77;5.88;;;;;;;;;;6199132;23;20243;-90
2023/06/26 08:28:12;;;;;;;10.48;6.63;;;;;;;;;;6196300;23;20647;-89
2023/06/26 08:31:20;;;;;;;10.93;6.75;;;;;;;;;;6195290;23;20222;-89
2023/06/26 08:34:25;;;;;;;9.93;6.47;;;;;;;;;;6197516;23;20163;-87
2023/06/26 08:37:32;;;;;;;11.73;7.72;;;;;;;;;;6198963;23;20175;-88
2023/06/26 08:40:42;;;;;;;13.52;6.63;;;;;;;;;;6194934;23;20246;-89
2023/06/26 08:43:49;;;;;;;9.68;6.80;;;;;;;;;;6196061;23;20231;-86
2023/06/26 08:46:55;;;;;;;9.18;6.00;;;;;;;;;;6194963;23;20164;-88
2023/06/26 08:50:05;;;;;;;8.20;6.70;;;;;;;;;;6197137;23;20187;-90
2023/06/26 08:53:15;;;;;;;11.07;6.65;;;;;;;;;;6196497;23;20675;-88
2023/06/26 08:56:24;;;;;;;8.90;6.93;;;;;;;;;;6197688;23;20167;-88
2023/06/26 08:59:29;;;;;;;11.15;6.40;;;;;;;;;;6195979;23;20191;-89
2023/06/26 09:02:36;;;;;;;9.63;6.53;;;;;;;;;;6193879;23;20163;-88
2023/06/26 09:05:41;;;;;;;8.77;6.30;;;;;;;;;;6198201;23;20202;-89
2023/06/26 09:08:46;;;;;;;20.23;7.53;;;;;;;;;;6197053;23;20195;-88
2023/06/26 09:11:52;;;;;;;11.55;6.60;;;;;;;;;;6197077;23;20167;-89
2023/06/26 09:14:57;;;;;;;10.45;6.85;;;;;;;;;;6198178;23;20538;-88
2023/06/26 09:18:12;;;;;;;11.38;6.25;;;;;;;;;;6196673;23;20236;-89
2023/06/26 09:21:17;;;;;;;11.00;6.53;;;;;;;;;;6198151;23;20150;-87
2023/06/26 09:24:23;;;;;;;10.02;6.55;;;;;;;;;;6196969;23;20183;-87
2023/06/26 09:27:28;;;;;;;9.48;6.28;;;;;;;;;;6198383;23;20222;-88
2023/06/26 09:30:35;;;;;;;20.10;7.07;;;;;;;;;;6198863;23;20171;-88
2023/06/26 09:33:42;;;;;;;9.70;6.82;;;;;;;;;;6198423;23;20216;-89
2023/06/26 09:36:49;;;;;;;11.13;6.43;;;;;;;;;;6196930;23;20175;-88
2023/06/26 09:39:58;;;;;;;12.00;6.50;;;;;;;;;;6196882;23;20254;-89
2023/06/26 09:43:06;;;;;;;8.30;6.22;;;;;;;;;;6196384;23;20172;-87
2023/06/26 09:46:11;;;;;;;7.55;5.82;;;;;;;;;;6195450;23;20222;-88
2023/06/26 09:49:18;;;;;;;8.85;6.40;;;;;;;;;;6196007;23;20218;-88
2023/06/26 09:52:23;;;;;;;10.60;6.20;;;;;;;;;;6195988;23;20163;-88
2023/06/26 09:55:28;;;;;;;8.32;6.20;;;;;;;;;;6195905;23;20168;-89
2023/06/26 09:58:34;;;;;;;9.82;5.90;;;;;;;;;;6193424;23;20654;-88
2023/06/26 10:01:41;;;;;;;11.85;6.45;;;;;;;;;;6195002;23;20164;-89
2023/06/26 10:04:47;;;;;;;9.40;5.82;;;;;;;;;;6195637;23;20163;-88
2023/06/26 10:07:54;;;;;;;8.30;5.55;;;;;;;;;;6194505;23;20194;-88
2023/06/26 10:11:00;;;;;;;9.95;6.20;;;;;;;;;;6196626;23;20178;-89
2023/06/26 10:14:06;;;;;;;6.97;5.45;;;;;;;;;;6198025;23;20167;-89
2023/06/26 10:17:13;;;;;;;11.75;6.10;;;;;;;;;;6195055;23;20206;-89
2023/06/26 10:20:37;;;;;;;11.45;6.00;;;;;;;;;;6194175;23;20603;-89
2023/06/26 10:23:43;;;;;;;9.07;6.03;;;;;;;;;;6194902;23;20210;-86
2023/06/26 10:26:50;;;;;;;6.75;5.40;;;;;;;;;;6194076;23;20187;-91
2023/06/26 10:29:56;;;;;;;8.10;5.60;;;;;;;;;;6194968;23;20202;-90
2023/06/26 10:36:29;;;;;;;8.43;5.65;;;;;;;;;;6199501;23;20198;-89
2023/06/26 10:39:54;;;;;;;10.77;5.13;;;;;;;;;;6195817;23;20635;-90
2023/06/26 10:43:08;;;;;;;8.18;5.57;;;;;;;;;;6200097;23;20220;-91
2023/06/26 10:46:16;;;;;;;8.30;5.18;;;;;;;;;;6197262;23;20243;-87
2023/06/26 10:49:22;;;;;;;9.98;5.20;;;;;;;;;;6196468;23;20186;-89
2023/06/26 10:52:29;;;;;;;10.30;5.20;;;;;;;;;;6197654;23;20235;-89
2023/06/26 10:55:34;;;;;;;7.78;5.47;;;;;;;;;;6197887;23;20593;-90
2023/06/26 10:58:46;;;;;;;12.60;5.45;;;;;;;;;;6196499;23;20175;-89
2023/06/26 11:01:56;;;;;;;6.03;4.95;;;;;;;;;;6195813;23;20179;-89
2023/06/26 11:05:01;;;;;;;23.55;6.13;;;;;;;;;;6196490;23;20167;-88
2023/06/26 11:08:10;;;;;;;11.85;6.53;;;;;;;;;;6200473;23;20194;-89
2023/06/26 11:11:15;;;;;;;7.70;5.30;;;;;;;;;;6198988;23;20207;-90
2023/06/26 11:14:22;;;;;;;8.10;5.30;;;;;;;;;;6200241;23;20167;-90
2023/06/26 11:17:28;;;;;;;6.28;4.90;;;;;;;;;;6193415;23;20901;-88
2023/06/26 11:24:53;;;;;;;9.00;4.97;;;;;;;;;;6200418;23;20175;-87
2023/06/26 11:27:58;;;;;;;5.95;4.55;;;;;;;;;;6198396;23;20166;-88
2023/06/26 11:31:04;;;;;;;7.40;4.80;;;;;;;;;;6197808;23;20283;-88
2023/06/26 11:34:11;;;;;;;8.50;5.50;;;;;;;;;;6200799;23;20210;-88
2023/06/26 11:37:18;;;;;;;13.02;5.53;;;;;;;;;;6200241;23;20179;-91
2023/06/26 11:40:41;;;;;;;5.97;4.50;;;;;;;;;;6200912;23;20225;-89
2023/06/26 11:43:48;;;;;;;6.90;4.60;;;;;;;;;;6202645;23;20236;-90
2023/06/26 11:46:55;;;;;;;6.25;4.40;;;;;;;;;;6201031;23;20151;-90
2023/06/26 11:50:01;;;;;;;6.85;4.53;;;;;;;;;;6198789;23;20198;-90
2023/06/26 11:53:07;;;;;;;5.43;4.40;;;;;;;;;;6197274;23;20492;-90
2023/06/26 11:56:38;;;;;;;5.93;4.25;;;;;;;;;;6199480;23;20228;-90
2023/06/26 11:59:46;;;;;;;7.57;4.28;;;;;;;;;;6198067;23;20163;-89
2023/06/26 12:02:54;;;;;;;8.75;4.93;;;;;;;;;;6198202;23;20191;-89
2023/06/26 12:06:00;;;;;;;10.38;5.28;;;;;;;;;;6196754;23;20163;-90
2023/06/26 12:09:09;;;;;;;7.15;4.65;;;;;;;;;;6199116;23;20190;-90
2023/06/26 12:12:16;;;;;;;8.02;4.68;;;;;;;;;;6198838;23;20162;-92
2023/06/26 12:15:23;;;;;;;12.07;4.82;;;;;;;;;;6197824;23;20215;-89
2023/06/26 12:18:34;;;;;;;8.55;4.97;;;;;;;;;;6198042;23;20663;-90
2023/06/26 12:21:48;;;;;;;6.68;4.65;;;;;;;;;;6199947;23;20662;-88
2023/06/26 12:24:54;;;;;;;6.47;5.20;;;;;;;;;;6200518;23;20630;-87
2023/06/26 12:28:00;;;;;;;8.05;5.20;;;;;;;;;;6199721;23;20220;-88
2023/06/26 12:31:17;;;;;;;8.77;5.25;;;;;;;;;;6200233;23;20154;-87
2023/06/26 12:34:23;;;;;;;11.45;5.13;;;;;;;;;;6198366;23;20163;-87
2023/06/26 12:37:29;;;;;;;7.78;5.10;;;;;;;;;;6201280;23;20168;-87
2023/06/26 12:40:54;;;;;;;7.70;5.00;;;;;;;;;;6197648;23;20210;-88
2023/06/26 12:43:59;;;;;;;6.45;5.28;;;;;;;;;;6197901;23;20463;-88
2023/06/26 12:47:10;;;;;;;7.53;5.28;;;;;;;;;;6199183;23;20166;-89
2023/06/26 12:50:16;;;;;;;8.05;5.50;;;;;;;;;;6197769;23;20249;-88
2023/06/26 12:53:21;;;;;;;9.25;5.57;;;;;;;;;;6198291;23;20156;-90
2023/06/26 12:56:26;;;;;;;8.40;5.78;;;;;;;;;;6199267;23;20171;-88
2023/06/26 12:59:32;;;;;;;6.80;5.25;;;;;;;;;;6199189;23;20245;-88
2023/06/26 13:02:39;;;;;;;7.07;5.13;;;;;;;;;;6198062;23;20163;-89
2023/06/26 13:05:44;;;;;;;10.48;4.85;;;;;;;;;;6197583;23;20165;-89
2023/06/26 13:08:49;;;;;;;8.90;4.60;;;;;;;;;;6199014;23;20191;-91
2023/06/26 13:11:54;;;;;;;7.95;5.03;;;;;;;;;;6198551;23;20251;-89
2023/06/26 13:14:59;;;;;;;8.43;5.07;;;;;;;;;;6197244;23;20533;-90
2023/06/26 13:18:06;;;;;;;6.68;5.13;;;;;;;;;;6197310;23;20155;-90
2023/06/26 13:21:11;;;;;;;8.75;4.90;;;;;;;;;;6196538;23;20170;-90
2023/06/26 13:24:16;;;;;;;7.05;5.00;;;;;;;;;;6197008;23;20311;-90
2023/06/26 13:27:21;;;;;;;7.78;4.80;;;;;;;;;;6195579;23;20596;-89
2023/06/26 13:30:27;;;;;;;8.20;5.28;;;;;;;;;;6197241;23;20634;-89
2023/06/26 13:33:33;;;;;;;7.93;4.72;;;;;;;;;;6196975;23;20174;-90
2023/06/26 13:36:39;;;;;;;7.80;4.90;;;;;;;;;;6200593;23;20222;-91
2023/06/26 13:39:49;;;;;;;6.53;5.28;;;;;;;;;;6200004;23;20170;-90
2023/06/26 13:42:55;;;;;;;6.60;4.43;;;;;;;;;;6199121;23;20223;-93
2023/06/26 13:46:01;;;;;;;7.57;5.45;;;;;;;;;;6198082;23;20171;-93
2023/06/26 13:49:17;;;;;;;8.27;4.72;;;;;;;;;;6198059;23;20511;-91
2023/06/26 13:52:22;;;;;;;7.05;5.63;;;;;;;;;;6199083;23;20163;-90
2023/06/26 13:55:27;;;;;;;6.38;5.03;;;;;;;;;;6197377;23;20183;-91
2023/06/26 13:58:33;;;;;;;8.05;5.10;;;;;;;;;;6196236;23;20167;-88
2023/06/26 14:01:39;;;;;;;7.53;5.07;;;;;;;;;;6198491;23;20171;-91
2023/06/26 14:04:45;;;;;;;7.30;4.97;;;;;;;;;;6198727;23;20154;-90
2023/06/26 14:07:51;;;;;;;6.78;4.80;;;;;;;;;;6198112;23;20166;-91
2023/06/26 14:10:56;;;;;;;6.60;4.78;;;;;;;;;;6198572;23;20543;-90
2023/06/26 14:14:01;;;;;;;6.38;4.88;;;;;;;;;;6202575;23;20163;-90
2023/06/26 14:17:08;;;;;;;10.30;5.00;;;;;;;;;;6196724;23;20151;-91
2023/06/26 14:20:32;;;;;;;39.78;5.88;;;;;;;;;;6200606;23;20354;-88
2023/06/26 14:23:38;;;;;;;9.30;5.00;;;;;;;;;;6199179;23;20198;-90
2023/06/26 14:26:43;;;;;;;7.78;5.03;;;;;;;;;;6199919;23;20183;-90
2023/06/26 14:29:48;;;;;;;9.35;5.47;;;;;;;;;;6198491;23;20241;-90
2023/06/26 14:32:54;;;;;;;7.55;5.00;;;;;;;;;;6199165;23;20189;-91
2023/06/26 14:36:16;;;;;;;7.50;5.22;;;;;;;;;;6203228;23;20183;-92
2023/06/26 14:39:41;;;;;;;8.23;5.85;;;;;;;;;;6200881;23;20214;-90
2023/06/26 14:46:05;;;;;;;7.13;5.10;;;;;;;;;;6199119;23;20270;-91
2023/06/26 14:49:10;;;;;;;7.95;5.00;;;;;;;;;;6202909;23;20194;-90
2023/06/26 14:52:16;;;;;;;10.15;5.15;;;;;;;;;;6200700;23;20275;-91
2023/06/26 14:55:23;;;;;;;7.38;5.78;;;;;;;;;;6198634;23;20183;-90
2023/06/26 14:58:43;;;;;;;9.05;5.28;;;;;;;;;;6199577;23;20167;-89
2023/06/26 15:01:49;;;;;;;10.85;5.30;;;;;;;;;;6197500;23;20283;-88
2023/06/26 15:04:54;;;;;;;9.25;5.13;;;;;;;;;;6199705;23;20170;-92
2023/06/26 15:07:59;;;;;;;7.55;5.45;;;;;;;;;;6200411;23;20269;-91
2023/06/26 15:11:05;;;;;;;10.10;5.45;;;;;;;;;;6199406;23;20273;-90
2023/06/26 15:14:11;;;;;;;8.13;5.20;;;;;;;;;;6199536;23;20198;-90
2023/06/26 15:17:16;;;;;;;8.68;4.95;;;;;;;;;;6199133;23;20707;-90
2023/06/26 15:20:25;;;;;;;8.10;5.43;;;;;;;;;;6200056;23;20163;-90
2023/06/26 15:23:30;;;;;;;8.15;5.13;;;;;;;;;;6206809;23;20174;-92
2023/06/26 15:26:37;;;;;;;10.02;5.28;;;;;;;;;;6198962;23;20167;-89
2023/06/26 15:29:42;;;;;;;6.88;5.05;;;;;;;;;;6196588;23;20543;-90
2023/06/26 15:32:48;;;;;;;7.00;4.60;;;;;;;;;;6197190;23;20260;-90
2023/06/26 15:35:53;;;;;;;7.10;4.45;;;;;;;;;;6198228;23;20171;-91
2023/06/26 15:39:00;;;;;;;6.88;4.65;;;;;;;;;;6195912;23;20523;-90
2023/06/26 15:42:07;;;;;;;6.57;4.65;;;;;;;;;;6198904;23;20226;-89
2023/06/26 15:45:13;;;;;;;8.15;4.40;;;;;;;;;;6197244;23;20162;-92
2023/06/26 15:48:21;;;;;;;8.00;4.15;;;;;;;;;;6197667;23;20236;-87
2023/06/26 15:51:26;;;;;;;5.90;4.50;;;;;;;;;;6201807;23;20171;-92
2023/06/26 15:54:32;;;;;;;6.90;4.30;;;;;;;;;;6199612;23;20220;-88
2023/06/26 16:01:04;;;;;;;9.10;4.85;;;;;;;;;;6199045;23;20159;-88
2023/06/26 16:04:10;;;;;;;6.55;4.18;;;;;;;;;;6204137;23;20171;-90
2023/06/26 16:07:16;;;;;;;7.60;4.70;;;;;;;;;;6199017;23;20172;-89
2023/06/26 16:10:21;;;;;;;10.00;4.82;;;;;;;;;;6200893;23;20183;-91
2023/06/26 16:13:29;;;;;;;10.18;4.60;;;;;;;;;;6199734;23;20167;-91
2023/06/26 16:16:35;;;;;;;7.47;4.93;;;;;;;;;;6202198;23;20156;-89
2023/06/26 16:19:41;;;;;;;6.85;4.53;;;;;;;;;;6201533;23;20163;-89
2023/06/26 16:22:47;;;;;;;6.38;4.60;;;;;;;;;;6201574;23;20207;-90
2023/06/26 16:25:52;;;;;;;7.10;4.72;;;;;;;;;;6201355;23;20159;-90
2023/06/26 16:28:59;;;;;;;8.45;4.90;;;;;;;;;;6201773;23;20239;-91
2023/06/26 16:32:04;;;;;;;24.15;5.03;;;;;;;;;;6202818;23;20167;-91
2023/06/26 16:35:12;;;;;;;7.93;4.30;;;;;;;;;;6202104;23;20258;-90
2023/06/26 16:38:17;;;;;;;8.52;4.80;;;;;;;;;;6203224;23;20167;-91
2023/06/26 16:41:54;;;;;;;7.80;5.10;;;;;;;;;;6204236;23;20154;-91
2023/06/26 16:45:01;;;;;;;6.47;4.70;;;;;;;;;;6202729;23;20841;-90
2023/06/26 16:48:06;;;;;;;7.13;4.93;;;;;;;;;;6203120;23;20171;-91
2023/06/26 16:51:12;;;;;;;6.85;4.72;;;;;;;;;;6202166;23;20206;-90
2023/06/26 16:54:18;;;;;;;7.35;4.68;;;;;;;;;;6201012;23;20167;-90
2023/06/26 16:57:24;;;;;;;13.68;5.45;;;;;;;;;;6202474;23;20167;-90
2023/06/26 17:00:31;;;;;;;6.70;4.53;;;;;;;;;;6202858;23;20183;-92
2023/06/26 17:03:37;;;;;;;10.82;5.20;;;;;;;;;;6202563;23;20176;-91
2023/06/26 17:06:43;;;;;;;11.75;5.90;;;;;;;;;;6200819;23;20166;-91
2023/06/26 17:09:49;;;;;;;10.00;4.95;;;;;;;;;;6201703;23;20191;-89
2023/06/26 17:12:55;;;;;;;8.15;5.13;;;;;;;;;;6201893;23;20175;-91
2023/06/26 17:16:02;;;;;;;8.43;5.13;;;;;;;;;;6202877;23;20167;-90
2023/06/26 17:19:07;;;;;;;9.23;4.97;;;;;;;;;;6201385;23;20167;-92
2023/06/26 17:22:12;;;;;;;9.18;5.43;;;;;;;;;;6202057;23;20175;-90
2023/06/26 17:25:17;;;;;;;7.88;5.53;;;;;;;;;;6200626;23;20211;-91
2023/06/26 17:28:22;;;;;;;10.82;5.40;;;;;;;;;;6200739;23;20175;-91
2023/06/26 17:31:31;;;;;;;7.82;5.55;;;;;;;;;;6201417;23;20198;-90
2023/06/26 17:34:37;;;;;;;11.05;5.30;;;;;;;;;;6202602;23;20236;-92
2023/06/26 17:37:44;;;;;;;12.15;5.43;;;;;;;;;;6201505;23;20212;-89
2023/06/26 17:40:51;;;;;;;10.13;5.57;;;;;;;;;;6200428;23;20168;-90
2023/06/26 17:43:56;;;;;;;8.07;5.10;;;;;;;;;;6201487;23;20192;-90
2023/06/26 17:47:04;;;;;;;8.52;5.45;;;;;;;;;;6200883;23;20177;-90
2023/06/26 17:50:12;;;;;;;9.20;4.90;;;;;;;;;;6200775;23;20629;-90
2023/06/26 17:53:18;;;;;;;8.73;5.25;;;;;;;;;;6200818;23;20170;-90
2023/06/26 18:00:41;;;;;;;9.75;5.65;;;;;;;;;;6202446;23;20159;-90
2023/06/26 18:03:49;;;;;;;14.07;7.38;;;;;;;;;;6202511;23;20151;-90
2023/06/26 18:06:55;;;;;;;10.32;5.82;;;;;;;;;;6202601;23;20204;-89
2023/06/26 18:10:00;;;;;;;7.75;5.40;;;;;;;;;;6201802;23;20191;-87
2023/06/26 18:13:06;;;;;;;11.93;5.53;;;;;;;;;;6202495;23;20239;-91
2023/06/26 18:16:11;;;;;;;15.32;5.47;;;;;;;;;;6204640;23;20163;-92
2023/06/26 18:19:26;;;;;;;13.57;5.72;;;;;;;;;;6206451;23;20192;-91
2023/06/26 18:22:18;;;;;;;9.50;5.68;;;;;;;;;;6206227;22;20237;-89
2023/06/26 18:25:23;;;;;;;9.80;5.45;;;;;;;;;;6248644;22;20171;-91
2023/06/26 18:28:31;;;;;;;9.75;6.22;;;;;;;;;;6247914;22;20185;-91
2023/06/26 18:31:36;;;;;;;9.50;5.78;;;;;;;;;;6250376;23;20186;-92
2023/06/26 18:34:43;;;;;;;11.27;7.18;;;;;;;;;;6248335;23;20182;-89
2023/06/26 18:37:49;;;;;;;9.32;6.57;;;;;;;;;;6244012;22;20207;-91
2023/06/26 18:40:56;;;;;;;19.13;8.13;;;;;;;;;;6245242;22;20166;-92
2023/06/26 18:44:01;;;;;;;11.48;7.47;;;;;;;;;;6245937;23;20520;-92
2023/06/26 18:47:07;;;;;;;11.10;6.63;;;;;;;;;;6246241;22;20166;-91
2023/06/26 18:50:14;;;;;;;10.77;6.13;;;;;;;;;;6245225;23;20194;-91